クアラルンプール の空港の天気 - METARとTAF

クアラルンプール国際空港 ( WMKK / KUL ) - マレーシア スランゴール州セパン
飛行場実況気象(Metar)
観測時間06/16 16:30 MYT (06/16 08:30 UTC)
風向・風速南東 3m/s
視程10km以上
天気現象
少しの雲 雲底高度 550m
全天の4割程度の雲 雲底高度 4270m
全天の8割程度の雲 雲底高度 8530m
気温32℃
湿度63%
気圧1007hPa
METARWMKK 160830Z 14006KT 100V190 9999 FEW018 SCT140 BKN280 32/24 Q1007 NOSIG
過去の天気等 Google飛行場航空写真 Wunderground天気予報

過去48時間のMETAR

飛行場予報(TAF)
発表時間: 6/16 13:00 MYT (6/16 05:00 UTC)
予報対象時間: 16日14時 MYT ~ 17日20時 MYT
風向・風速南 3m/s
視程10km以上
全天の4割程度の雲 雲底高度 550m
16日19時 MYT ~ 16日20時 MYT に徐々に
風向・風速南東 3m/s
少しの雲 雲底高度 910m
17日2時 MYT ~ 17日4時 MYT に徐々に
風向・風速不定 1m/s
少しの積乱雲 雲底高度 520m
TAF WMKK 160500Z 1606/1712 18005KT 9999 SCT018
BECMG 1611/1612 14005KT FEW030
BECMG 1618/1620 VRB02KT FEW017CB